sensor_id;sensor_type;location;lat;lon;timestamp;P1;durP1;ratioP1;P2;durP2;ratioP2
40058;SDS011;25763;49.972;8.568;2022-07-29T00:02:19;141.50;;;134.50;;
40058;SDS011;25763;49.972;8.568;2022-07-29T00:04:44;158.13;;;150.35;;
40058;SDS011;25763;49.972;8.568;2022-07-29T00:07:10;134.75;;;128.10;;
40058;SDS011;25763;49.972;8.568;2022-07-29T00:09:35;137.07;;;130.32;;
40058;SDS011;25763;49.972;8.568;2022-07-29T00:12:01;138.55;;;131.73;;
40058;SDS011;25763;49.972;8.568;2022-07-29T00:14:27;130.43;;;124.00;;
40058;SDS011;25763;49.972;8.568;2022-07-29T00:16:52;124.97;;;118.80;;
40058;SDS011;25763;49.972;8.568;2022-07-29T00:19:18;132.98;;;126.40;;
40058;SDS011;25763;49.972;8.568;2022-07-29T00:21:43;136.90;;;130.18;;
40058;SDS011;25763;49.972;8.568;2022-07-29T00:24:08;128.52;;;122.20;;
40058;SDS011;25763;49.972;8.568;2022-07-29T00:26:34;124.50;;;118.38;;
40058;SDS011;25763;49.972;8.568;2022-07-29T00:29:00;119.20;;;113.32;;
40058;SDS011;25763;49.972;8.568;2022-07-29T00:31:26;101.65;;;96.68;;
40058;SDS011;25763;49.972;8.568;2022-07-29T00:33:52;72.15;;;68.38;;
40058;SDS011;25763;49.972;8.568;2022-07-29T00:36:17;102.90;;;97.82;;
40058;SDS011;25763;49.972;8.568;2022-07-29T00:38:42;81.30;;;77.25;;
40058;SDS011;25763;49.972;8.568;2022-07-29T00:41:10;101.78;;;96.78;;
40058;SDS011;25763;49.972;8.568;2022-07-29T00:43:36;112.63;;;107.07;;
40058;SDS011;25763;49.972;8.568;2022-07-29T00:46:01;126.00;;;119.78;;
40058;SDS011;25763;49.972;8.568;2022-07-29T00:48:27;92.88;;;88.30;;
40058;SDS011;25763;49.972;8.568;2022-07-29T00:50:52;127.13;;;120.88;;
40058;SDS011;25763;49.972;8.568;2022-07-29T00:53:18;112.85;;;107.32;;
40058;SDS011;25763;49.972;8.568;2022-07-29T00:55:45;110.60;;;105.18;;
40058;SDS011;25763;49.972;8.568;2022-07-29T00:58:11;107.90;;;102.60;;
40058;SDS011;25763;49.972;8.568;2022-07-29T01:00:37;111.95;;;106.47;;
40058;SDS011;25763;49.972;8.568;2022-07-29T01:03:05;97.97;;;92.97;;
40058;SDS011;25763;49.972;8.568;2022-07-29T01:05:31;99.28;;;94.38;;
40058;SDS011;25763;49.972;8.568;2022-07-29T01:07:57;101.47;;;96.30;;
40058;SDS011;25763;49.972;8.568;2022-07-29T01:10:23;108.95;;;103.63;;
40058;SDS011;25763;49.972;8.568;2022-07-29T01:12:50;100.65;;;94.68;;
40058;SDS011;25763;49.972;8.568;2022-07-29T01:15:16;94.40;;;89.72;;
40058;SDS011;25763;49.972;8.568;2022-07-29T01:20:26;91.13;;;86.63;;
40058;SDS011;25763;49.972;8.568;2022-07-29T01:29:22;85.57;;;81.38;;
40058;SDS011;25763;49.972;8.568;2022-07-29T01:31:43;76.63;;;72.82;;
40058;SDS011;25763;49.972;8.568;2022-07-29T01:37:11;72.50;;;68.88;;
40058;SDS011;25763;49.972;8.568;2022-07-29T01:39:43;87.07;;;82.75;;
40058;SDS011;25763;49.972;8.568;2022-07-29T01:42:15;84.70;;;80.53;;
40058;SDS011;25763;49.972;8.568;2022-07-29T01:44:57;92.22;;;87.70;;
40058;SDS011;25763;49.972;8.568;2022-07-29T01:47:23;104.80;;;99.47;;
40058;SDS011;25763;49.972;8.568;2022-07-29T01:49:56;100.07;;;95.07;;
40058;SDS011;25763;49.972;8.568;2022-07-29T01:52:34;94.53;;;89.90;;
40058;SDS011;25763;49.972;8.568;2022-07-29T01:55:06;97.57;;;92.72;;
40058;SDS011;25763;49.972;8.568;2022-07-29T01:57:36;95.57;;;90.88;;
40058;SDS011;25763;49.972;8.568;2022-07-29T02:00:03;92.95;;;88.10;;
40058;SDS011;25763;49.972;8.568;2022-07-29T02:02:30;106.00;;;100.82;;
40058;SDS011;25763;49.972;8.568;2022-07-29T02:04:57;99.13;;;94.28;;
40058;SDS011;25763;49.972;8.568;2022-07-29T02:07:25;112.57;;;107.05;;
40058;SDS011;25763;49.972;8.568;2022-07-29T02:09:53;99.93;;;94.93;;
40058;SDS011;25763;49.972;8.568;2022-07-29T02:12:20;102.82;;;97.75;;
40058;SDS011;25763;49.972;8.568;2022-07-29T02:14:50;103.72;;;98.60;;
40058;SDS011;25763;49.972;8.568;2022-07-29T02:17:21;107.05;;;101.63;;
40058;SDS011;25763;49.972;8.568;2022-07-29T02:19:50;102.20;;;97.15;;
40058;SDS011;25763;49.972;8.568;2022-07-29T02:22:18;101.18;;;96.22;;
40058;SDS011;25763;49.972;8.568;2022-07-29T02:24:44;107.97;;;102.68;;
40058;SDS011;25763;49.972;8.568;2022-07-29T02:27:11;109.38;;;103.97;;
40058;SDS011;25763;49.972;8.568;2022-07-29T02:29:38;101.75;;;96.72;;
40058;SDS011;25763;49.972;8.568;2022-07-29T02:32:05;107.25;;;102.00;;
40058;SDS011;25763;49.972;8.568;2022-07-29T02:34:33;98.18;;;93.35;;
40058;SDS011;25763;49.972;8.568;2022-07-29T02:37:02;99.93;;;95.00;;
40058;SDS011;25763;49.972;8.568;2022-07-29T02:39:28;109.63;;;104.25;;
40058;SDS011;25763;49.972;8.568;2022-07-29T02:41:57;103.65;;;98.55;;
40058;SDS011;25763;49.972;8.568;2022-07-29T02:44:30;102.40;;;97.38;;
40058;SDS011;25763;49.972;8.568;2022-07-29T03:01:03;73.53;;;69.88;;
40058;SDS011;25763;49.972;8.568;2022-07-29T03:03:34;62.03;;;58.90;;
40058;SDS011;25763;49.972;8.568;2022-07-29T03:06:02;63.50;;;60.35;;
40058;SDS011;25763;49.972;8.568;2022-07-29T03:08:29;59.20;;;55.13;;
40058;SDS011;25763;49.972;8.568;2022-07-29T03:10:55;52.60;;;49.90;;
40058;SDS011;25763;49.972;8.568;2022-07-29T03:13:21;51.58;;;48.97;;
40058;SDS011;25763;49.972;8.568;2022-07-29T03:15:47;53.65;;;50.95;;
40058;SDS011;25763;49.972;8.568;2022-07-29T03:18:14;57.50;;;54.60;;
40058;SDS011;25763;49.972;8.568;2022-07-29T03:20:40;49.22;;;46.72;;
40058;SDS011;25763;49.972;8.568;2022-07-29T03:23:05;50.92;;;48.33;;
40058;SDS011;25763;49.972;8.568;2022-07-29T03:25:32;47.28;;;44.88;;
40058;SDS011;25763;49.972;8.568;2022-07-29T03:27:57;51.08;;;48.45;;
40058;SDS011;25763;49.972;8.568;2022-07-29T03:30:23;49.97;;;47.45;;
40058;SDS011;25763;49.972;8.568;2022-07-29T03:32:50;48.92;;;46.45;;
40058;SDS011;25763;49.972;8.568;2022-07-29T03:35:16;40.45;;;38.35;;
40058;SDS011;25763;49.972;8.568;2022-07-29T03:37:42;47.40;;;45.00;;
40058;SDS011;25763;49.972;8.568;2022-07-29T03:40:08;46.55;;;43.45;;
40058;SDS011;25763;49.972;8.568;2022-07-29T03:42:36;47.90;;;45.45;;
40058;SDS011;25763;49.972;8.568;2022-07-29T03:45:08;48.05;;;45.65;;
40058;SDS011;25763;49.972;8.568;2022-07-29T03:47:38;47.60;;;45.20;;
40058;SDS011;25763;49.972;8.568;2022-07-29T03:50:08;46.35;;;43.95;;
40058;SDS011;25763;49.972;8.568;2022-07-29T03:52:35;47.97;;;45.58;;
40058;SDS011;25763;49.972;8.568;2022-07-29T03:55:01;44.30;;;42.00;;
40058;SDS011;25763;49.972;8.568;2022-07-29T03:57:28;45.22;;;42.90;;
40058;SDS011;25763;49.972;8.568;2022-07-29T03:59:55;43.92;;;41.72;;
40058;SDS011;25763;49.972;8.568;2022-07-29T04:02:22;39.63;;;37.63;;
40058;SDS011;25763;49.972;8.568;2022-07-29T04:04:48;41.13;;;39.03;;
40058;SDS011;25763;49.972;8.568;2022-07-29T04:07:13;40.85;;;38.72;;
40058;SDS011;25763;49.972;8.568;2022-07-29T04:09:40;39.97;;;37.95;;
40058;SDS011;25763;49.972;8.568;2022-07-29T04:12:06;41.63;;;39.50;;
40058;SDS011;25763;49.972;8.568;2022-07-29T04:14:32;40.75;;;38.65;;
40058;SDS011;25763;49.972;8.568;2022-07-29T04:16:59;44.53;;;42.10;;
40058;SDS011;25763;49.972;8.568;2022-07-29T04:19:26;40.95;;;38.85;;
40058;SDS011;25763;49.972;8.568;2022-07-29T04:21:51;35.08;;;33.28;;
40058;SDS011;25763;49.972;8.568;2022-07-29T04:24:17;35.67;;;33.83;;
40058;SDS011;25763;49.972;8.568;2022-07-29T04:26:42;43.30;;;41.10;;
40058;SDS011;25763;49.972;8.568;2022-07-29T04:29:07;47.35;;;44.95;;
40058;SDS011;25763;49.972;8.568;2022-07-29T04:31:33;40.78;;;38.67;;
40058;SDS011;25763;49.972;8.568;2022-07-29T04:33:58;41.10;;;38.97;;
40058;SDS011;25763;49.972;8.568;2022-07-29T04:36:24;50.72;;;48.15;;
40058;SDS011;25763;49.972;8.568;2022-07-29T04:38:49;39.72;;;37.65;;
40058;SDS011;25763;49.972;8.568;2022-07-29T04:41:14;51.60;;;48.97;;
40058;SDS011;25763;49.972;8.568;2022-07-29T04:43:40;42.83;;;40.63;;
40058;SDS011;25763;49.972;8.568;2022-07-29T04:46:05;41.03;;;38.92;;
40058;SDS011;25763;49.972;8.568;2022-07-29T04:48:31;47.30;;;44.90;;
40058;SDS011;25763;49.972;8.568;2022-07-29T04:50:57;44.60;;;42.30;;
40058;SDS011;25763;49.972;8.568;2022-07-29T04:53:22;39.40;;;37.30;;
40058;SDS011;25763;49.972;8.568;2022-07-29T04:55:48;44.88;;;42.58;;
40058;SDS011;25763;49.972;8.568;2022-07-29T04:58:13;47.67;;;45.28;;
40058;SDS011;25763;49.972;8.568;2022-07-29T05:00:38;43.75;;;41.53;;
40058;SDS011;25763;49.972;8.568;2022-07-29T05:03:04;45.72;;;43.38;;
40058;SDS011;25763;49.972;8.568;2022-07-29T05:05:29;53.97;;;51.20;;
40058;SDS011;25763;49.972;8.568;2022-07-29T05:07:55;54.83;;;51.67;;
40058;SDS011;25763;49.972;8.568;2022-07-29T05:10:21;48.28;;;45.83;;
40058;SDS011;25763;49.972;8.568;2022-07-29T05:12:46;41.15;;;39.05;;
40058;SDS011;25763;49.972;8.568;2022-07-29T05:15:12;48.88;;;46.38;;
40058;SDS011;25763;49.972;8.568;2022-07-29T05:17:37;44.13;;;41.88;;
40058;SDS011;25763;49.972;8.568;2022-07-29T05:20:03;38.08;;;36.08;;
40058;SDS011;25763;49.972;8.568;2022-07-29T05:22:29;34.35;;;32.55;;
40058;SDS011;25763;49.972;8.568;2022-07-29T05:24:54;31.98;;;30.30;;
40058;SDS011;25763;49.972;8.568;2022-07-29T05:27:20;34.47;;;32.67;;
40058;SDS011;25763;49.972;8.568;2022-07-29T05:29:45;35.67;;;33.78;;
40058;SDS011;25763;49.972;8.568;2022-07-29T05:32:10;34.92;;;33.13;;
40058;SDS011;25763;49.972;8.568;2022-07-29T05:34:36;34.83;;;33.00;;
40058;SDS011;25763;49.972;8.568;2022-07-29T05:37:02;35.97;;;34.13;;
40058;SDS011;25763;49.972;8.568;2022-07-29T05:39:27;38.50;;;36.50;;
40058;SDS011;25763;49.972;8.568;2022-07-29T05:41:52;34.95;;;33.15;;
40058;SDS011;25763;49.972;8.568;2022-07-29T05:44:18;34.75;;;32.95;;
40058;SDS011;25763;49.972;8.568;2022-07-29T05:46:43;35.53;;;33.42;;
40058;SDS011;25763;49.972;8.568;2022-07-29T05:49:08;38.83;;;36.83;;
40058;SDS011;25763;49.972;8.568;2022-07-29T05:51:34;38.55;;;36.58;;
40058;SDS011;25763;49.972;8.568;2022-07-29T05:53:59;46.00;;;43.65;;
40058;SDS011;25763;49.972;8.568;2022-07-29T05:56:25;38.67;;;36.65;;
40058;SDS011;25763;49.972;8.568;2022-07-29T05:58:51;49.03;;;46.55;;
40058;SDS011;25763;49.972;8.568;2022-07-29T06:01:17;48.53;;;46.05;;
40058;SDS011;25763;49.972;8.568;2022-07-29T06:03:43;45.75;;;43.25;;
40058;SDS011;25763;49.972;8.568;2022-07-29T06:06:09;44.88;;;42.58;;
40058;SDS011;25763;49.972;8.568;2022-07-29T06:08:34;47.58;;;45.17;;
40058;SDS011;25763;49.972;8.568;2022-07-29T06:11:01;49.42;;;46.92;;
40058;SDS011;25763;49.972;8.568;2022-07-29T06:13:27;61.58;;;58.38;;
40058;SDS011;25763;49.972;8.568;2022-07-29T06:15:53;59.35;;;56.38;;
40058;SDS011;25763;49.972;8.568;2022-07-29T06:18:18;68.50;;;65.07;;
40058;SDS011;25763;49.972;8.568;2022-07-29T06:20:45;77.35;;;73.50;;
40058;SDS011;25763;49.972;8.568;2022-07-29T06:23:11;73.05;;;69.40;;
40058;SDS011;25763;49.972;8.568;2022-07-29T06:25:36;117.82;;;111.95;;
40058;SDS011;25763;49.972;8.568;2022-07-29T06:28:03;83.55;;;79.18;;
40058;SDS011;25763;49.972;8.568;2022-07-29T06:30:28;120.10;;;114.10;;
40058;SDS011;25763;49.972;8.568;2022-07-29T06:32:54;120.78;;;114.85;;
40058;SDS011;25763;49.972;8.568;2022-07-29T06:35:20;131.13;;;124.65;;
40058;SDS011;25763;49.972;8.568;2022-07-29T06:37:45;131.05;;;124.57;;
40058;SDS011;25763;49.972;8.568;2022-07-29T06:40:10;151.85;;;144.23;;
40058;SDS011;25763;49.972;8.568;2022-07-29T06:42:55;148.90;;;141.52;;
40058;SDS011;25763;49.972;8.568;2022-07-29T06:45:20;154.20;;;146.63;;
40058;SDS011;25763;49.972;8.568;2022-07-29T06:47:45;152.07;;;144.63;;
40058;SDS011;25763;49.972;8.568;2022-07-29T06:50:11;154.55;;;146.98;;
40058;SDS011;25763;49.972;8.568;2022-07-29T06:52:37;137.68;;;130.90;;
40058;SDS011;25763;49.972;8.568;2022-07-29T06:55:04;152.88;;;145.38;;
40058;SDS011;25763;49.972;8.568;2022-07-29T06:57:29;134.00;;;127.35;;
40058;SDS011;25763;49.972;8.568;2022-07-29T06:59:58;125.53;;;119.32;;
40058;SDS011;25763;49.972;8.568;2022-07-29T07:02:23;125.90;;;119.70;;
40058;SDS011;25763;49.972;8.568;2022-07-29T07:04:48;124.90;;;118.80;;
40058;SDS011;25763;49.972;8.568;2022-07-29T07:07:14;115.78;;;110.05;;
40058;SDS011;25763;49.972;8.568;2022-07-29T07:09:39;114.82;;;109.18;;
40058;SDS011;25763;49.972;8.568;2022-07-29T07:12:05;121.40;;;115.45;;
40058;SDS011;25763;49.972;8.568;2022-07-29T07:14:31;107.95;;;102.57;;
40058;SDS011;25763;49.972;8.568;2022-07-29T07:16:56;112.40;;;106.88;;
40058;SDS011;25763;49.972;8.568;2022-07-29T07:19:21;117.90;;;112.10;;
40058;SDS011;25763;49.972;8.568;2022-07-29T07:21:47;122.90;;;116.78;;
40058;SDS011;25763;49.972;8.568;2022-07-29T07:24:12;122.75;;;116.70;;
40058;SDS011;25763;49.972;8.568;2022-07-29T07:26:37;116.22;;;110.35;;
40058;SDS011;25763;49.972;8.568;2022-07-29T07:29:04;117.72;;;111.93;;
40058;SDS011;25763;49.972;8.568;2022-07-29T07:31:30;122.45;;;116.43;;
40058;SDS011;25763;49.972;8.568;2022-07-29T07:33:55;127.03;;;120.75;;
40058;SDS011;25763;49.972;8.568;2022-07-29T07:36:22;132.68;;;126.15;;
40058;SDS011;25763;49.972;8.568;2022-07-29T07:38:47;121.45;;;115.47;;
40058;SDS011;25763;49.972;8.568;2022-07-29T07:41:13;136.43;;;129.65;;
40058;SDS011;25763;49.972;8.568;2022-07-29T07:43:38;117.78;;;112.00;;
40058;SDS011;25763;49.972;8.568;2022-07-29T07:46:04;112.63;;;107.07;;
40058;SDS011;25763;49.972;8.568;2022-07-29T07:48:30;116.07;;;110.38;;
40058;SDS011;25763;49.972;8.568;2022-07-29T07:50:55;117.90;;;112.10;;
40058;SDS011;25763;49.972;8.568;2022-07-29T07:53:21;98.25;;;93.43;;
40058;SDS011;25763;49.972;8.568;2022-07-29T07:55:46;126.22;;;120.00;;
40058;SDS011;25763;49.972;8.568;2022-07-29T07:58:11;124.22;;;118.13;;
40058;SDS011;25763;49.972;8.568;2022-07-29T08:00:37;95.28;;;90.57;;
40058;SDS011;25763;49.972;8.568;2022-07-29T08:03:02;87.03;;;82.72;;
40058;SDS011;25763;49.972;8.568;2022-07-29T08:05:28;131.90;;;125.40;;
40058;SDS011;25763;49.972;8.568;2022-07-29T08:07:53;119.22;;;113.10;;
40058;SDS011;25763;49.972;8.568;2022-07-29T08:10:19;134.85;;;128.18;;
40058;SDS011;25763;49.972;8.568;2022-07-29T08:13:07;114.35;;;108.65;;
40058;SDS011;25763;49.972;8.568;2022-07-29T08:15:34;119.30;;;113.43;;
40058;SDS011;25763;49.972;8.568;2022-07-29T08:17:59;97.85;;;93.03;;
40058;SDS011;25763;49.972;8.568;2022-07-29T08:20:25;128.10;;;121.75;;
40058;SDS011;25763;49.972;8.568;2022-07-29T08:22:51;125.05;;;118.90;;
40058;SDS011;25763;49.972;8.568;2022-07-29T08:25:17;144.70;;;137.57;;
40058;SDS011;25763;49.972;8.568;2022-07-29T08:27:45;158.90;;;151.05;;
40058;SDS011;25763;49.972;8.568;2022-07-29T08:30:11;77.65;;;73.80;;
40058;SDS011;25763;49.972;8.568;2022-07-29T08:32:36;110.75;;;105.30;;
40058;SDS011;25763;49.972;8.568;2022-07-29T08:35:02;93.70;;;89.07;;
40058;SDS011;25763;49.972;8.568;2022-07-29T08:37:27;116.57;;;110.82;;
40058;SDS011;25763;49.972;8.568;2022-07-29T08:39:53;100.88;;;95.88;;
40058;SDS011;25763;49.972;8.568;2022-07-29T08:42:18;113.20;;;107.63;;
40058;SDS011;25763;49.972;8.568;2022-07-29T08:44:44;128.77;;;122.40;;
40058;SDS011;25763;49.972;8.568;2022-07-29T08:47:10;154.18;;;146.60;;
40058;SDS011;25763;49.972;8.568;2022-07-29T08:49:39;106.40;;;101.20;;
40058;SDS011;25763;49.972;8.568;2022-07-29T08:52:04;113.30;;;107.70;;
40058;SDS011;25763;49.972;8.568;2022-07-29T08:54:30;95.75;;;91.00;;
40058;SDS011;25763;49.972;8.568;2022-07-29T08:56:56;112.53;;;107.03;;
40058;SDS011;25763;49.972;8.568;2022-07-29T08:59:24;65.78;;;62.47;;
40058;SDS011;25763;49.972;8.568;2022-07-29T09:01:52;53.22;;;50.42;;
40058;SDS011;25763;49.972;8.568;2022-07-29T09:04:19;82.53;;;78.43;;
40058;SDS011;25763;49.972;8.568;2022-07-29T09:06:46;72.38;;;68.78;;
40058;SDS011;25763;49.972;8.568;2022-07-29T09:09:13;87.40;;;83.10;;
40058;SDS011;25763;49.972;8.568;2022-07-29T09:11:39;56.33;;;53.50;;
40058;SDS011;25763;49.972;8.568;2022-07-29T09:14:04;116.15;;;110.45;;
40058;SDS011;25763;49.972;8.568;2022-07-29T09:16:47;92.35;;;87.80;;
40058;SDS011;25763;49.972;8.568;2022-07-29T09:19:19;133.13;;;126.55;;
40058;SDS011;25763;49.972;8.568;2022-07-29T09:21:52;145.57;;;138.30;;
40058;SDS011;25763;49.972;8.568;2022-07-29T09:24:45;134.27;;;127.65;;
40058;SDS011;25763;49.972;8.568;2022-07-29T09:27:19;101.40;;;96.40;;
40058;SDS011;25763;49.972;8.568;2022-07-29T09:32:30;92.13;;;87.53;;
40058;SDS011;25763;49.972;8.568;2022-07-29T09:37:45;75.40;;;71.63;;
40058;SDS011;25763;49.972;8.568;2022-07-29T09:40:16;117.55;;;111.80;;
40058;SDS011;25763;49.972;8.568;2022-07-29T09:42:51;102.93;;;97.88;;
40058;SDS011;25763;49.972;8.568;2022-07-29T09:45:29;146.15;;;138.98;;
40058;SDS011;25763;49.972;8.568;2022-07-29T09:47:56;88.13;;;83.78;;
40058;SDS011;25763;49.972;8.568;2022-07-29T09:50:38;103.53;;;98.45;;
40058;SDS011;25763;49.972;8.568;2022-07-29T09:53:05;108.95;;;103.63;;
40058;SDS011;25763;49.972;8.568;2022-07-29T09:55:31;106.65;;;101.40;;
40058;SDS011;25763;49.972;8.568;2022-07-29T09:58:14;118.93;;;113.05;;
40058;SDS011;25763;49.972;8.568;2022-07-29T10:00:41;128.73;;;122.38;;
40058;SDS011;25763;49.972;8.568;2022-07-29T10:03:07;135.82;;;129.13;;
40058;SDS011;25763;49.972;8.568;2022-07-29T10:05:33;147.43;;;139.25;;
40058;SDS011;25763;49.972;8.568;2022-07-29T10:07:58;140.80;;;133.90;;
40058;SDS011;25763;49.972;8.568;2022-07-29T10:12:59;177.18;;;168.50;;
40058;SDS011;25763;49.972;8.568;2022-07-29T10:15:26;172.52;;;164.10;;
40058;SDS011;25763;49.972;8.568;2022-07-29T10:17:54;159.88;;;151.95;;
40058;SDS011;25763;49.972;8.568;2022-07-29T10:20:21;150.85;;;143.38;;
40058;SDS011;25763;49.972;8.568;2022-07-29T10:22:48;163.25;;;155.20;;
40058;SDS011;25763;49.972;8.568;2022-07-29T10:25:15;166.95;;;158.43;;
40058;SDS011;25763;49.972;8.568;2022-07-29T10:27:41;166.50;;;158.27;;
40058;SDS011;25763;49.972;8.568;2022-07-29T10:30:07;176.25;;;167.57;;
40058;SDS011;25763;49.972;8.568;2022-07-29T10:35:37;179.32;;;170.52;;
40058;SDS011;25763;49.972;8.568;2022-07-29T10:43:59;164.73;;;156.60;;
40058;SDS011;25763;49.972;8.568;2022-07-29T10:46:27;144.23;;;137.10;;
40058;SDS011;25763;49.972;8.568;2022-07-29T10:54:19;121.60;;;115.60;;
40058;SDS011;25763;49.972;8.568;2022-07-29T10:59:49;132.45;;;125.85;;
40058;SDS011;25763;49.972;8.568;2022-07-29T11:07:22;141.55;;;134.55;;
40058;SDS011;25763;49.972;8.568;2022-07-29T11:15:08;152.82;;;145.23;;
40058;SDS011;25763;49.972;8.568;2022-07-29T11:20:30;144.60;;;137.45;;
40058;SDS011;25763;49.972;8.568;2022-07-29T11:22:59;126.65;;;120.40;;
40058;SDS011;25763;49.972;8.568;2022-07-29T11:25:25;128.95;;;122.55;;
40058;SDS011;25763;49.972;8.568;2022-07-29T11:27:51;143.35;;;136.25;;
40058;SDS011;25763;49.972;8.568;2022-07-29T11:30:18;138.57;;;131.68;;
40058;SDS011;25763;49.972;8.568;2022-07-29T11:32:44;133.73;;;127.13;;
40058;SDS011;25763;49.972;8.568;2022-07-29T11:38:23;143.20;;;135.98;;
40058;SDS011;25763;49.972;8.568;2022-07-29T11:43:51;136.50;;;129.32;;
40058;SDS011;25763;49.972;8.568;2022-07-29T11:46:35;111.53;;;106.00;;
40058;SDS011;25763;49.972;8.568;2022-07-29T11:49:18;116.47;;;110.60;;
40058;SDS011;25763;49.972;8.568;2022-07-29T11:51:51;129.95;;;123.53;;
40058;SDS011;25763;49.972;8.568;2022-07-29T11:56:48;153.00;;;145.40;;
40058;SDS011;25763;49.972;8.568;2022-07-29T11:59:14;158.90;;;151.02;;
40058;SDS011;25763;49.972;8.568;2022-07-29T12:01:51;128.32;;;121.97;;
40058;SDS011;25763;49.972;8.568;2022-07-29T12:04:17;108.72;;;103.38;;
40058;SDS011;25763;49.972;8.568;2022-07-29T12:06:42;127.80;;;121.38;;
40058;SDS011;25763;49.972;8.568;2022-07-29T12:09:08;145.50;;;138.30;;
40058;SDS011;25763;49.972;8.568;2022-07-29T12:11:33;148.90;;;141.55;;
40058;SDS011;25763;49.972;8.568;2022-07-29T12:13:58;120.55;;;114.63;;
40058;SDS011;25763;49.972;8.568;2022-07-29T12:16:33;117.28;;;111.45;;
40058;SDS011;25763;49.972;8.568;2022-07-29T12:19:00;121.47;;;115.45;;
40058;SDS011;25763;49.972;8.568;2022-07-29T12:21:27;129.68;;;123.28;;
40058;SDS011;25763;49.972;8.568;2022-07-29T12:23:54;139.95;;;133.02;;
40058;SDS011;25763;49.972;8.568;2022-07-29T12:26:20;118.28;;;112.43;;
40058;SDS011;25763;49.972;8.568;2022-07-29T12:28:45;137.50;;;130.68;;
40058;SDS011;25763;49.972;8.568;2022-07-29T12:31:14;120.53;;;114.53;;
40058;SDS011;25763;49.972;8.568;2022-07-29T12:36:06;97.43;;;92.60;;
40058;SDS011;25763;49.972;8.568;2022-07-29T12:38:33;110.65;;;105.18;;
40058;SDS011;25763;49.972;8.568;2022-07-29T12:40:59;113.20;;;107.57;;
40058;SDS011;25763;49.972;8.568;2022-07-29T12:43:25;124.88;;;118.68;;
40058;SDS011;25763;49.972;8.568;2022-07-29T12:45:53;141.05;;;134.07;;
40058;SDS011;25763;49.972;8.568;2022-07-29T12:48:36;109.32;;;103.95;;
40058;SDS011;25763;49.972;8.568;2022-07-29T12:51:04;107.15;;;101.88;;
40058;SDS011;25763;49.972;8.568;2022-07-29T12:53:31;122.25;;;116.20;;
40058;SDS011;25763;49.972;8.568;2022-07-29T12:55:57;126.47;;;120.22;;
40058;SDS011;25763;49.972;8.568;2022-07-29T12:58:30;121.32;;;115.28;;
40058;SDS011;25763;49.972;8.568;2022-07-29T13:01:07;108.97;;;103.57;;
40058;SDS011;25763;49.972;8.568;2022-07-29T13:03:48;125.72;;;119.53;;
40058;SDS011;25763;49.972;8.568;2022-07-29T13:09:16;105.75;;;100.53;;
40058;SDS011;25763;49.972;8.568;2022-07-29T13:11:47;124.20;;;118.05;;
40058;SDS011;25763;49.972;8.568;2022-07-29T13:14:29;122.32;;;116.25;;
40058;SDS011;25763;49.972;8.568;2022-07-29T13:17:00;120.57;;;114.68;;
40058;SDS011;25763;49.972;8.568;2022-07-29T13:19:36;110.10;;;104.65;;
40058;SDS011;25763;49.972;8.568;2022-07-29T13:22:06;108.10;;;102.78;;
40058;SDS011;25763;49.972;8.568;2022-07-29T13:24:48;121.15;;;115.15;;
40058;SDS011;25763;49.972;8.568;2022-07-29T13:27:19;118.00;;;112.15;;
40058;SDS011;25763;49.972;8.568;2022-07-29T13:29:47;108.22;;;102.90;;
40058;SDS011;25763;49.972;8.568;2022-07-29T13:32:13;134.23;;;127.47;;
40058;SDS011;25763;49.972;8.568;2022-07-29T13:34:39;114.68;;;109.00;;
40058;SDS011;25763;49.972;8.568;2022-07-29T13:37:05;102.85;;;97.78;;
40058;SDS011;25763;49.972;8.568;2022-07-29T13:39:31;128.65;;;122.25;;
40058;SDS011;25763;49.972;8.568;2022-07-29T13:41:56;126.88;;;120.63;;
40058;SDS011;25763;49.972;8.568;2022-07-29T13:44:22;109.57;;;104.20;;
40058;SDS011;25763;49.972;8.568;2022-07-29T13:46:47;124.20;;;118.07;;
40058;SDS011;25763;49.972;8.568;2022-07-29T13:49:13;105.63;;;100.28;;
40058;SDS011;25763;49.972;8.568;2022-07-29T13:51:38;116.80;;;111.03;;
40058;SDS011;25763;49.972;8.568;2022-07-29T13:54:04;106.45;;;101.22;;
40058;SDS011;25763;49.972;8.568;2022-07-29T13:56:29;101.03;;;96.05;;
40058;SDS011;25763;49.972;8.568;2022-07-29T13:58:55;117.97;;;112.13;;
40058;SDS011;25763;49.972;8.568;2022-07-29T14:01:20;111.32;;;105.78;;
40058;SDS011;25763;49.972;8.568;2022-07-29T14:03:46;127.90;;;121.57;;
40058;SDS011;25763;49.972;8.568;2022-07-29T14:06:11;105.78;;;100.55;;
40058;SDS011;25763;49.972;8.568;2022-07-29T14:08:37;109.32;;;103.93;;
40058;SDS011;25763;49.972;8.568;2022-07-29T14:11:02;121.13;;;115.13;;
40058;SDS011;25763;49.972;8.568;2022-07-29T14:13:28;119.93;;;114.00;;
40058;SDS011;25763;49.972;8.568;2022-07-29T14:15:53;132.52;;;125.97;;
40058;SDS011;25763;49.972;8.568;2022-07-29T14:18:18;117.60;;;111.75;;
40058;SDS011;25763;49.972;8.568;2022-07-29T14:20:44;125.82;;;119.60;;
40058;SDS011;25763;49.972;8.568;2022-07-29T14:23:09;112.70;;;106.95;;
40058;SDS011;25763;49.972;8.568;2022-07-29T14:25:34;130.05;;;123.60;;
40058;SDS011;25763;49.972;8.568;2022-07-29T14:28:00;120.35;;;114.35;;
40058;SDS011;25763;49.972;8.568;2022-07-29T14:30:25;109.72;;;104.28;;
40058;SDS011;25763;49.972;8.568;2022-07-29T14:32:51;113.80;;;108.22;;
40058;SDS011;25763;49.972;8.568;2022-07-29T14:35:16;116.22;;;110.53;;
40058;SDS011;25763;49.972;8.568;2022-07-29T14:37:41;122.38;;;116.15;;
40058;SDS011;25763;49.972;8.568;2022-07-29T14:40:08;121.97;;;115.93;;
40058;SDS011;25763;49.972;8.568;2022-07-29T14:42:34;127.80;;;121.47;;
40058;SDS011;25763;49.972;8.568;2022-07-29T14:45:01;115.53;;;109.85;;
40058;SDS011;25763;49.972;8.568;2022-07-29T14:47:26;130.40;;;124.00;;
40058;SDS011;25763;49.972;8.568;2022-07-29T14:49:51;139.93;;;133.02;;
40058;SDS011;25763;49.972;8.568;2022-07-29T14:52:17;173.80;;;165.23;;
40058;SDS011;25763;49.972;8.568;2022-07-29T14:54:42;183.55;;;174.52;;
40058;SDS011;25763;49.972;8.568;2022-07-29T14:57:07;168.57;;;160.27;;
40058;SDS011;25763;49.972;8.568;2022-07-29T14:59:33;166.70;;;158.50;;
40058;SDS011;25763;49.972;8.568;2022-07-29T15:01:59;164.77;;;156.65;;
40058;SDS011;25763;49.972;8.568;2022-07-29T15:04:24;162.00;;;153.95;;
40058;SDS011;25763;49.972;8.568;2022-07-29T15:06:50;159.48;;;151.57;;
40058;SDS011;25763;49.972;8.568;2022-07-29T15:09:16;168.38;;;160.15;;
40058;SDS011;25763;49.972;8.568;2022-07-29T15:11:42;158.70;;;150.88;;
40058;SDS011;25763;49.972;8.568;2022-07-29T15:14:08;163.63;;;155.57;;
40058;SDS011;25763;49.972;8.568;2022-07-29T15:16:37;165.80;;;157.60;;
40058;SDS011;25763;49.972;8.568;2022-07-29T15:19:04;164.82;;;156.70;;
40058;SDS011;25763;49.972;8.568;2022-07-29T15:21:30;159.68;;;151.77;;
40058;SDS011;25763;49.972;8.568;2022-07-29T15:23:55;157.25;;;149.50;;
40058;SDS011;25763;49.972;8.568;2022-07-29T15:26:20;160.68;;;152.73;;